Time;durP1;ratioP1;P1;durP2;ratioP2;P2;SDS_P1;SDS_P2;PMS_P1;PMS_P2;Temp;Humidity;BMP_temperature;BMP_pressure;BME280_temperature;BME280_humidity;BME280_pressure;Samples;Min_cycle;Max_cycle;Signal;HPM_P1;HPM_P2
2021/11/26 00:00:24;;;;;;;6.40;1.70;;;;;;;11.61;51.82;100770.06;4157468;28;20369;-60
2021/11/26 00:02:27;;;;;;;;;;;;;;;11.67;51.82;100780.34;4157565;28;20323;-61
2021/11/26 00:04:30;;;;;;;8.25;2.20;;;;;;;11.64;51.93;100776.97;4157436;28;19988;-59
2021/11/26 00:06:32;;;;;;;;;;;;;;;11.66;51.78;100785.69;4157810;28;20349;-58
2021/11/26 00:08:34;;;;;;;7.65;1.88;;;;;;;11.57;52.15;100765.84;4157180;28;19947;-61
2021/11/26 00:10:36;;;;;;;8.07;1.45;;;;;;;11.59;52.05;100760.50;4157239;28;20046;-59
2021/11/26 00:12:40;;;;;;;10.00;2.00;;;;;;;11.65;51.98;100770.78;4157088;28;20061;-61
2021/11/26 00:16:56;;;;;;;9.70;1.90;;;;;;;11.65;51.77;100753.22;4157308;28;20200;-59
2021/11/26 00:19:04;;;;;;;6.60;1.75;;;;;;;11.64;51.77;100755.91;4157071;28;20061;-60
2021/11/26 00:21:06;;;;;;;6.63;1.75;;;;;;;11.64;51.77;100758.53;4157294;28;20054;-59
2021/11/26 00:23:08;;;;;;;;;;;;;;;11.64;51.67;100764.69;4157516;28;20117;-61
2021/11/26 00:25:10;;;;;;;6.90;1.95;;;;;;;11.60;51.64;100752.53;4156948;28;19989;-61
2021/11/26 00:27:12;;;;;;;7.28;1.95;;;;;;;11.56;51.95;100750.09;4157013;28;20069;-59
2021/11/26 00:29:16;;;;;;;5.72;1.70;;;;;;;11.64;51.49;100756.78;4157152;28;20046;-59
2021/11/26 00:31:18;;;;;;;7.20;1.60;;;;;;;11.48;52.00;100737.22;4157047;28;20067;-61
2021/11/26 00:33:21;;;;;;;;;;;;;;;11.64;51.82;100766.44;4157152;28;20424;-59
2021/11/26 00:35:24;;;;;;;5.80;1.55;;;;;;;11.64;51.84;100758.53;4157050;28;19924;-60
2021/11/26 00:37:26;;;;;;;6.05;1.83;;;;;;;11.62;51.60;100752.50;4156907;28;20085;-61
2021/11/26 00:39:28;;;;;;;;;;;;;;;11.63;51.65;100754.22;4157190;28;20327;-60
2021/11/26 00:41:30;;;;;;;8.07;2.15;;;;;;;11.60;51.76;100741.16;4156936;28;19944;-60
2021/11/26 00:43:32;;;;;;;;;;;;;;;11.61;51.87;100743.72;4156941;28;20072;-61
2021/11/26 00:45:35;;;;;;;7.13;1.80;;;;;;;11.60;51.75;100747.25;4156514;28;19980;-60
2021/11/26 00:47:38;;;;;;;8.52;2.03;;;;;;;11.61;52.03;100742.88;4156743;28;20069;-60
2021/11/26 00:49:40;;;;;;;8.07;2.10;;;;;;;11.61;51.65;100743.72;4156387;28;20069;-60
2021/11/26 00:51:42;;;;;;;;;;;;;;;11.62;51.63;100741.97;4157113;28;20401;-60
2021/11/26 00:53:45;;;;;;;9.45;2.13;;;;;;;11.59;51.70;100736.78;4156365;28;20237;-61
2021/11/26 00:55:47;;;;;;;6.95;2.22;;;;;;;11.60;51.38;100734.09;4156635;28;20399;-60
2021/11/26 00:57:49;;;;;;;6.15;1.77;;;;;;;11.60;51.54;100726.19;4156668;28;20072;-58
2021/11/26 00:59:51;;;;;;;8.05;2.30;;;;;;;11.60;51.52;100730.63;4156226;28;20393;-60
2021/11/26 01:01:53;;;;;;;;;;;;;;;11.60;51.68;100733.25;4156887;28;20105;-61
2021/11/26 01:03:56;;;;;;;7.03;2.10;;;;;;;11.60;51.68;100738.50;4156394;28;19947;-60
2021/11/26 01:05:58;;;;;;;8.48;2.13;;;;;;;11.56;51.45;100729.88;4156365;28;20065;-60
2021/11/26 01:08:00;;;;;;;;;;;;;;;11.57;51.84;100728.97;4156767;28;20050;-60
2021/11/26 01:10:08;;;;;;;8.40;1.98;;;;;;;11.53;51.33;100715.97;4156145;28;19941;-60
2021/11/26 01:12:10;;;;;;;8.57;2.30;;;;;;;11.57;51.40;100723.69;4156372;28;20073;-59
2021/11/26 01:14:12;;;;;;;7.10;1.73;;;;;;;11.57;51.46;100726.31;4155859;28;20076;-58
2021/11/26 01:16:15;;;;;;;;;;;;;;;11.56;51.51;100721.97;4156828;28;20076;-60
2021/11/26 01:18:17;;;;;;;8.07;2.10;;;;;;;11.54;51.78;100718.53;4156386;28;19945;-59
2021/11/26 01:20:22;;;;;;;;;;;;;;;11.56;51.62;100715.88;4156548;28;20345;-59
2021/11/26 01:22:24;;;;;;;9.27;2.35;;;;;;;11.54;51.71;100721.16;4155918;28;19992;-60
2021/11/26 01:24:26;;;;;;;6.57;2.13;;;;;;;11.53;51.66;100706.31;4155922;28;20105;-58
2021/11/26 01:26:29;;;;;;;7.95;1.90;;;;;;;11.53;51.19;100708.06;4156017;28;20337;-59
2021/11/26 01:28:31;;;;;;;7.68;2.33;;;;;;;11.51;51.42;100702.88;4156048;28;20068;-60
2021/11/26 01:30:37;;;;;;;6.93;2.25;;;;;;;11.50;51.54;100709.06;4155751;28;20065;-58
2021/11/26 01:32:40;;;;;;;6.53;1.95;;;;;;;11.48;51.53;100702.97;4155796;28;20113;-60
2021/11/26 01:34:42;;;;;;;9.90;2.20;;;;;;;11.50;51.60;100709.06;4155823;28;20129;-59
2021/11/26 01:36:48;;;;;;;;;;;;;;;11.51;51.60;100708.97;4156186;28;20061;-59
2021/11/26 01:38:50;;;;;;;6.78;2.13;;;;;;;11.06;51.44;100628.28;4156040;28;19984;-60
2021/11/26 01:40:53;;;;;;;8.07;2.15;;;;;;;11.43;51.73;100683.88;4155681;28;20072;-60
2021/11/26 01:42:56;;;;;;;8.43;2.17;;;;;;;11.51;51.67;100692.34;4155611;28;20106;-60
2021/11/26 01:44:58;;;;;;;7.80;1.95;;;;;;;11.50;51.35;100678.28;4155386;28;20076;-59
2021/11/26 01:47:00;;;;;;;9.25;2.40;;;;;;;11.50;51.61;100680.94;4170899;28;20061;-60
2021/11/26 01:49:02;;;;;;;10.85;2.42;;;;;;;11.51;51.31;100681.81;4155834;28;20046;-61
2021/11/26 01:51:05;;;;;;;9.80;2.50;;;;;;;11.49;51.61;100673.09;4155546;28;20042;-58
2021/11/26 01:53:08;;;;;;;8.52;2.30;;;;;;;11.42;51.67;100667.22;4155744;28;20246;-58
2021/11/26 01:55:11;;;;;;;8.70;2.17;;;;;;;11.45;51.48;100666.25;4155436;28;20073;-61
2021/11/26 01:57:16;;;;;;;7.50;2.15;;;;;;;11.49;51.32;100676.59;4155468;28;20053;-58
2021/11/26 01:59:18;;;;;;;9.43;2.33;;;;;;;11.50;51.25;100667.75;4155647;28;20057;-59
2021/11/26 02:01:21;;;;;;;8.05;2.25;;;;;;;11.49;51.40;100663.44;4154967;28;20106;-59
2021/11/26 02:03:24;;;;;;;8.27;2.30;;;;;;;11.47;51.67;100659.13;4155538;28;20050;-59
2021/11/26 02:05:26;;;;;;;8.70;2.03;;;;;;;11.49;51.51;100658.16;4155329;28;20384;-61
2021/11/26 02:07:28;;;;;;;;;;;;;;;11.48;51.52;100656.44;4156066;28;20350;-61
2021/11/26 02:09:30;;;;;;;6.63;1.92;;;;;;;11.46;51.42;100646.91;4155511;28;19992;-59
2021/11/26 02:11:33;;;;;;;9.63;2.17;;;;;;;11.41;51.38;100639.19;4155346;28;20073;-59
2021/11/26 02:13:35;;;;;;;;;;;;;;;11.48;51.49;100653.81;4155741;28;20127;-60
2021/11/26 02:15:42;;;;;;;9.07;2.33;;;;;;;11.48;51.44;100645.91;4155449;28;19943;-59
2021/11/26 02:17:45;;;;;;;7.40;2.10;;;;;;;11.44;51.38;100636.41;4155499;28;20065;-61
2021/11/26 02:19:52;;;;;;;7.93;1.95;;;;;;;11.49;51.54;100638.84;4155682;28;20069;-59
2021/11/26 02:21:55;;;;;;;8.48;2.28;;;;;;;11.27;51.32;100602.00;4155487;28;20046;-60
2021/11/26 02:23:57;;;;;;;7.90;2.55;;;;;;;11.44;51.30;100630.28;4155376;28;20352;-60
2021/11/26 02:25:59;;;;;;;8.75;2.35;;;;;;;11.42;51.29;100622.47;4155270;28;20073;-59
2021/11/26 02:28:03;;;;;;;;;;;;;;;11.48;51.52;100635.38;4155750;28;20073;-60
2021/11/26 02:30:17;;;;;;;8.15;2.25;;;;;;;11.46;51.31;100625.84;4155247;28;19940;-60
2021/11/26 02:32:19;;;;;;;7.18;2.00;;;;;;;11.45;51.59;100616.22;4155340;28;20105;-60
2021/11/26 02:34:21;;;;;;;7.53;2.05;;;;;;;11.48;51.45;100619.56;4155211;28;20062;-60
2021/11/26 02:36:23;;;;;;;7.32;2.08;;;;;;;11.47;51.38;100617.88;4155338;28;20053;-58
2021/11/26 02:38:27;;;;;;;7.20;2.10;;;;;;;11.44;51.38;100609.22;4155079;28;20050;-60
2021/11/26 02:40:31;;;;;;;8.38;2.10;;;;;;;11.48;51.30;100613.44;4155190;28;20069;-60
2021/11/26 02:42:35;;;;;;;5.28;1.90;;;;;;;11.26;51.33;100581.88;4155253;28;20084;-61
2021/11/26 02:44:37;;;;;;;6.75;2.20;;;;;;;11.45;51.50;100617.06;4155354;28;20113;-60
2021/11/26 02:46:40;;;;;;;8.48;2.40;;;;;;;11.39;51.41;100604.13;4155139;28;20113;-60
2021/11/26 02:48:42;;;;;;;6.90;2.60;;;;;;;11.32;51.36;100593.03;4155116;28;20061;-58
2021/11/26 02:50:45;;;;;;;;;;;;;;;11.46;51.31;100607.41;4155560;28;20070;-60
2021/11/26 02:52:47;;;;;;;8.07;2.67;;;;;;;11.37;51.24;100579.66;4155133;28;20138;-58
2021/11/26 02:54:52;;;;;;;9.23;2.30;;;;;;;11.43;51.53;100595.19;4155195;28;20109;-58
2021/11/26 02:56:54;;;;;;;8.38;2.20;;;;;;;11.40;51.54;100579.53;4155294;28;20077;-60
2021/11/26 02:58:56;;;;;;;8.75;2.47;;;;;;;11.39;51.58;100574.34;4154971;28;20046;-60
2021/11/26 03:01:00;;;;;;;6.40;2.15;;;;;;;11.43;51.52;100581.19;4155152;28;20077;-59
2021/11/26 03:03:03;;;;;;;7.45;2.35;;;;;;;11.40;51.33;100571.63;4154931;28;20045;-59
2021/11/26 03:05:06;;;;;;;8.18;2.47;;;;;;;11.43;51.38;100574.13;4155093;28;20053;-61
2021/11/26 03:07:10;;;;;;;7.28;2.20;;;;;;;11.40;51.20;100563.72;4155356;28;20076;-61
2021/11/26 03:09:12;;;;;;;7.03;2.30;;;;;;;11.40;51.30;100562.84;4153960;28;20069;-60
2021/11/26 03:11:15;;;;;;;7.80;2.15;;;;;;;11.45;51.35;100571.44;4155287;28;20109;-58
2021/11/26 03:13:17;;;;;;;9.20;2.45;;;;;;;11.45;51.49;100574.06;4155406;28;20145;-58
2021/11/26 03:15:21;;;;;;;6.35;2.33;;;;;;;11.44;51.32;100567.09;4158109;28;20191;-61
2021/11/26 03:17:24;;;;;;;8.52;2.30;;;;;;;11.40;51.23;100561.09;4158204;28;20053;-59
2021/11/26 03:19:27;;;;;;;8.07;2.00;;;;;;;11.45;51.22;100566.19;4157990;28;20065;-60
2021/11/26 03:21:29;;;;;;;;;;;;;;;11.44;51.44;100567.94;4158714;28;20114;-57
2021/11/26 03:23:31;;;;;;;7.57;2.10;;;;;;;11.43;51.49;100568.84;4157985;28;19917;-59
2021/11/26 03:25:33;;;;;;;5.68;1.90;;;;;;;11.44;51.47;100562.66;4157810;28;20065;-59
2021/11/26 03:27:36;;;;;;;7.82;2.28;;;;;;;11.38;51.16;100543.66;4158016;28;20109;-61
2021/11/26 03:29:38;;;;;;;6.50;1.95;;;;;;;11.38;51.15;100541.88;4157673;28;20045;-61
2021/11/26 03:31:40;;;;;;;;;;;;;;;11.43;51.37;100544.31;4158146;28;20072;-60
2021/11/26 03:33:42;;;;;;;6.95;2.10;;;;;;;11.42;51.23;100537.31;4157567;28;19981;-61
2021/11/26 03:35:44;;;;;;;9.68;2.40;;;;;;;11.39;51.15;100532.22;4158008;28;20057;-61
2021/11/26 03:37:47;;;;;;;;;;;;;;;11.41;51.47;100533.84;4158434;28;20361;-59
2021/11/26 03:39:49;;;;;;;9.63;2.15;;;;;;;11.38;51.09;100526.06;4157446;28;19917;-61
2021/11/26 03:41:51;;;;;;;7.97;2.28;;;;;;;11.41;51.17;100530.34;4157729;28;20065;-61
2021/11/26 03:43:53;;;;;;;6.30;1.98;;;;;;;11.38;51.42;100512.06;4157534;28;20061;-59
2021/11/26 03:45:55;;;;;;;7.22;2.22;;;;;;;11.24;51.36;100481.03;4157469;28;20113;-60
2021/11/26 03:47:59;;;;;;;10.05;2.40;;;;;;;11.41;51.29;100506.66;4157594;28;20117;-58
2021/11/26 03:50:01;;;;;;;8.57;2.30;;;;;;;11.39;51.42;100503.25;4157496;28;20046;-59
2021/11/26 03:52:03;;;;;;;;;;;;;;;11.40;51.17;100505.81;4157828;28;20053;-59
2021/11/26 03:54:05;;;;;;;5.78;2.15;;;;;;;11.40;51.21;100510.19;4157291;28;20281;-59
2021/11/26 03:56:07;;;;;;;;;;;;;;;11.40;51.15;100504.94;4157823;28;20062;-60
2021/11/26 03:58:09;;;;;;;6.45;2.35;;;;;;;11.27;51.48;100486.19;4157537;28;20153;-59
2021/11/26 04:00:13;;;;;;;8.85;2.10;;;;;;;11.37;51.19;100502.44;4157312;28;20127;-59
2021/11/26 04:02:16;;;;;;;6.93;2.28;;;;;;;11.37;51.26;100500.66;4157407;28;20076;-58
2021/11/26 04:04:18;;;;;;;6.43;2.20;;;;;;;11.38;51.18;100496.25;4157273;28;20077;-59
2021/11/26 04:06:20;;;;;;;8.10;2.33;;;;;;;11.40;51.11;100494.38;4157347;28;20073;-61
2021/11/26 04:08:22;;;;;;;6.22;2.03;;;;;;;11.34;51.30;100485.84;4157497;28;20121;-61
2021/11/26 04:10:24;;;;;;;;;;;;;;;11.39;51.23;100485.66;4157533;28;20042;-61
2021/11/26 04:12:28;;;;;;;7.75;1.88;;;;;;;11.29;51.22;100463.28;4157341;28;20343;-60
2021/11/26 04:14:30;;;;;;;6.80;2.22;;;;;;;11.23;51.19;100453.88;4156866;28;20073;-59
2021/11/26 04:16:34;;;;;;;6.50;2.00;;;;;;;11.23;51.17;100447.72;4157118;28;20093;-61
2021/11/26 04:18:36;;;;;;;8.38;2.40;;;;;;;11.37;51.06;100469.06;4157411;28;20061;-60
2021/11/26 04:20:42;;;;;;;;;;;;;;;11.37;51.12;100470.84;4157496;28;20050;-60
2021/11/26 04:22:46;;;;;;;7.57;2.22;;;;;;;11.34;51.32;100464.78;4157040;28;19924;-59
2021/11/26 04:24:48;;;;;;;6.35;2.13;;;;;;;11.15;51.22;100432.28;4156431;28;20109;-60
2021/11/26 04:26:50;;;;;;;;;;;;;;;11.36;51.17;100459.44;4157328;28;20075;-59
2021/11/26 04:28:52;;;;;;;8.90;2.37;;;;;;;11.28;51.32;100451.03;4157222;28;19918;-61
2021/11/26 04:30:54;;;;;;;6.43;2.05;;;;;;;11.34;51.32;100454.25;4156848;28;20608;-61
2021/11/26 04:32:58;;;;;;;8.38;2.03;;;;;;;11.35;51.42;100449.84;4157020;28;20447;-59
2021/11/26 04:35:00;;;;;;;6.00;2.20;;;;;;;11.30;50.97;100438.66;4156837;28;20053;-59
2021/11/26 04:37:02;;;;;;;7.45;2.25;;;;;;;11.35;51.13;100449.84;4156636;28;20049;-58
2021/11/26 04:39:05;;;;;;;7.32;2.22;;;;;;;11.29;51.19;100426.44;4140815;28;20118;-61
2021/11/26 04:41:07;;;;;;;7.88;2.28;;;;;;;11.35;50.95;100440.16;4147705;28;20283;-61
2021/11/26 04:43:09;;;;;;;7.32;2.03;;;;;;;11.33;51.13;100439.38;4162877;28;20053;-60
2021/11/26 04:45:13;;;;;;;7.10;2.35;;;;;;;11.30;50.96;100428.97;4156809;28;20065;-61
2021/11/26 04:47:16;;;;;;;8.45;2.60;;;;;;;11.34;51.16;100434.97;4156331;28;20046;-60
2021/11/26 04:49:18;;;;;;;;;;;;;;;11.35;51.39;100437.53;4157148;28;20100;-59
2021/11/26 04:51:20;;;;;;;6.88;2.20;;;;;;;11.34;51.38;100440.25;4156567;28;19948;-58
2021/11/26 04:53:22;;;;;;;7.28;2.60;;;;;;;11.34;51.12;100440.25;4156552;28;20045;-60
2021/11/26 04:55:25;;;;;;;7.38;2.08;;;;;;;11.32;51.09;100434.19;4156847;28;20065;-60
2021/11/26 04:57:27;;;;;;;7.50;2.75;;;;;;;11.16;51.00;100407.66;4156220;28;20052;-59
2021/11/26 04:59:29;;;;;;;8.50;2.40;;;;;;;11.34;51.28;100434.97;4156665;28;20333;-60
2021/11/26 05:01:32;;;;;;;7.68;2.78;;;;;;;11.28;51.00;100422.09;4156542;28;20045;-60
2021/11/26 05:03:34;;;;;;;9.55;2.70;;;;;;;11.30;51.31;100421.09;4156298;28;20069;-60
2021/11/26 05:05:36;;;;;;;;;;;;;;;11.32;51.20;100416.63;4156955;28;20049;-62
2021/11/26 05:07:38;;;;;;;7.13;2.65;;;;;;;11.32;50.99;100416.63;4156263;28;19937;-59
2021/11/26 05:09:41;;;;;;;;;;;;;;;11.32;51.27;100407.84;4156677;28;20104;-59
2021/11/26 05:11:44;;;;;;;7.93;2.30;;;;;;;11.31;51.45;100408.75;4156287;28;19981;-58
2021/11/26 05:13:47;;;;;;;7.32;2.78;;;;;;;11.29;51.52;100411.47;4156009;28;20056;-60
2021/11/26 05:15:50;;;;;;;;;;;;;;;11.31;51.25;100399.09;4156888;28;20058;-59
2021/11/26 05:17:54;;;;;;;6.82;2.60;;;;;;;11.28;51.27;100401.84;4156097;28;19992;-57
2021/11/26 05:19:58;;;;;;;6.20;2.80;;;;;;;11.28;51.24;100388.69;4156321;28;20105;-58
2021/11/26 05:22:00;;;;;;;8.50;2.42;;;;;;;11.14;51.26;100370.00;4156062;28;20158;-61
2021/11/26 05:24:02;;;;;;;;;;;;;;;11.31;51.10;100392.97;4156551;28;20072;-58
2021/11/26 05:26:04;;;;;;;5.90;2.47;;;;;;;11.23;51.44;100374.88;4156000;28;19985;-58
2021/11/26 05:28:07;;;;;;;9.45;2.90;;;;;;;11.24;50.99;100368.72;4155862;28;20062;-59
2021/11/26 05:30:09;;;;;;;;;;;;;;;11.29;51.36;100369.34;4156673;28;20069;-60
2021/11/26 05:32:11;;;;;;;6.47;2.53;;;;;;;11.30;51.08;100359.66;4156074;28;19947;-60
2021/11/26 05:34:14;;;;;;;9.88;2.83;;;;;;;11.28;51.43;100356.25;4155771;28;20072;-60
2021/11/26 05:36:16;;;;;;;8.25;2.60;;;;;;;11.24;51.13;100341.50;4155420;28;20456;-60
2021/11/26 05:38:18;;;;;;;5.95;2.55;;;;;;;11.27;51.11;100350.13;4155819;28;20109;-60
2021/11/26 05:40:21;;;;;;;10.38;2.80;;;;;;;11.30;51.32;100352.63;4156164;28;20113;-60
2021/11/26 05:42:23;;;;;;;9.25;2.63;;;;;;;11.25;51.03;100346.72;4155880;28;20101;-59
2021/11/26 05:44:25;;;;;;;;;;;;;;;11.29;51.30;100350.09;4156354;28;20113;-61
2021/11/26 05:46:28;;;;;;;7.78;2.80;;;;;;;11.27;51.15;100341.38;4155784;28;19918;-60
2021/11/26 05:48:30;;;;;;;7.15;3.30;;;;;;;11.27;51.49;100339.59;4155676;28;20105;-59
2021/11/26 05:50:32;;;;;;;9.63;2.78;;;;;;;11.28;51.25;100336.03;4155692;28;20053;-59
2021/11/26 05:52:36;;;;;;;8.07;2.83;;;;;;;11.24;51.37;100323.97;4155955;28;20330;-60
2021/11/26 05:54:38;;;;;;;7.78;2.90;;;;;;;11.29;51.12;100326.38;4155700;28;20347;-60
2021/11/26 05:56:40;;;;;;;;;;;;;;;11.28;51.13;100327.31;4139946;28;20047;-60
2021/11/26 05:58:42;;;;;;;8.23;2.72;;;;;;;11.23;50.99;100309.09;4146763;28;19947;-61
2021/11/26 06:00:44;;;;;;;8.23;2.67;;;;;;;11.29;51.51;100318.50;4155847;28;20065;-61
2021/11/26 06:02:48;;;;;;;8.15;2.88;;;;;;;11.23;51.15;100300.31;4155584;28;20056;-60
2021/11/26 06:04:50;;;;;;;7.03;2.25;;;;;;;11.27;51.28;100310.63;4155493;28;20066;-58
2021/11/26 06:06:52;;;;;;;;;;;;;;;11.27;51.27;100302.75;4155821;28;20072;-61
2021/11/26 06:08:54;;;;;;;7.53;2.63;;;;;;;11.19;51.66;100281.16;4155500;28;19984;-60
2021/11/26 06:10:56;;;;;;;6.50;2.55;;;;;;;11.27;51.09;100291.38;4155516;28;20061;-58
2021/11/26 06:12:58;;;;;;;6.43;2.30;;;;;;;11.23;51.19;100282.75;4155559;28;20061;-59
2021/11/26 06:15:01;;;;;;;;;;;;;;;11.27;51.11;100299.28;4155569;28;20573;-59
2021/11/26 06:17:03;;;;;;;5.35;2.10;;;;;;;11.23;51.41;100295.03;4155299;28;19980;-61
2021/11/26 06:19:05;;;;;;;7.50;2.47;;;;;;;11.27;51.10;100294.84;4155549;28;20069;-58
2021/11/26 06:21:07;;;;;;;;;;;;;;;11.27;51.39;100299.28;4155746;28;20041;-59
2021/11/26 06:23:10;;;;;;;8.02;2.38;;;;;;;11.26;51.23;100293.13;4155657;28;19925;-60
2021/11/26 06:25:12;;;;;;;;;;;;;;;11.26;51.38;100285.22;4155692;28;20070;-59
2021/11/26 06:27:15;;;;;;;6.93;2.42;;;;;;;11.26;51.18;100281.75;4155210;28;19941;-62
2021/11/26 06:29:17;;;;;;;7.68;2.60;;;;;;;11.25;51.40;100277.41;4155299;28;20069;-62
2021/11/26 06:31:19;;;;;;;7.85;2.50;;;;;;;11.24;51.09;100267.81;4155532;28;20066;-60
2021/11/26 06:33:21;;;;;;;7.80;2.35;;;;;;;11.26;51.10;100273.88;4155309;28;20066;-60
2021/11/26 06:35:24;;;;;;;8.00;2.30;;;;;;;11.25;51.24;100267.75;4154919;28;20113;-60
2021/11/26 06:37:27;;;;;;;8.65;2.53;;;;;;;11.24;51.40;100263.41;4154191;28;20077;-59
2021/11/26 06:39:29;;;;;;;9.60;2.45;;;;;;;11.19;51.10;100257.47;4141500;28;20381;-59
2021/11/26 06:41:31;;;;;;;7.63;2.70;;;;;;;11.17;51.25;100239.13;4155368;28;20105;-59
2021/11/26 06:43:33;;;;;;;7.07;2.60;;;;;;;11.26;51.29;100255.44;4155178;28;20065;-59
2021/11/26 06:45:35;;;;;;;8.02;2.53;;;;;;;11.18;51.34;100246.09;4155172;28;20073;-59
2021/11/26 06:47:38;;;;;;;7.28;2.35;;;;;;;11.25;51.03;100245.81;4156578;28;20113;-60
2021/11/26 06:49:40;;;;;;;7.65;2.75;;;;;;;11.18;51.26;100232.94;4158504;28;20061;-60
2021/11/26 06:51:42;;;;;;;7.07;2.58;;;;;;;11.25;51.20;100238.81;4158523;28;20093;-58
2021/11/26 06:53:44;;;;;;;9.15;2.85;;;;;;;11.26;50.94;100237.84;4158465;28;20100;-58
2021/11/26 06:55:47;;;;;;;8.60;2.88;;;;;;;11.25;51.14;100235.28;4158419;28;20046;-58
2021/11/26 06:57:49;;;;;;;7.65;2.30;;;;;;;11.20;51.22;100217.06;4158352;28;20050;-59
2021/11/26 06:59:53;;;;;;;8.13;2.35;;;;;;;11.24;51.30;100223.94;4158883;28;20057;-60
2021/11/26 07:01:55;;;;;;;7.60;2.75;;;;;;;11.25;51.33;100217.75;4157953;28;20149;-59
2021/11/26 07:03:59;;;;;;;;;;;;;;;11.25;51.08;100217.75;4158938;28;20077;-60
2021/11/26 07:06:01;;;;;;;6.60;2.53;;;;;;;11.13;51.26;100186.69;4158234;28;19929;-59
2021/11/26 07:08:03;;;;;;;8.52;2.40;;;;;;;11.24;51.42;100202.00;4158219;28;20069;-61
2021/11/26 07:10:08;;;;;;;8.75;2.38;;;;;;;11.23;51.27;100200.28;4158475;28;20282;-60
2021/11/26 07:12:10;;;;;;;7.70;2.67;;;;;;;11.25;51.19;100206.34;4158110;28;20070;-60
2021/11/26 07:14:15;;;;;;;7.22;2.22;;;;;;;11.23;51.38;100193.25;4157883;28;20408;-60
2021/11/26 07:16:19;;;;;;;8.68;2.60;;;;;;;11.22;51.31;100188.91;4157925;28;20316;-60
2021/11/26 07:18:21;;;;;;;6.60;2.40;;;;;;;11.21;51.03;100189.00;4158129;28;20125;-60
2021/11/26 07:20:23;;;;;;;;;;;;;;;11.24;51.05;100191.47;4158512;28;20046;-60
2021/11/26 07:22:29;;;;;;;7.93;2.60;;;;;;;11.08;51.10;100160.63;4157958;28;19944;-58
2021/11/26 07:24:32;;;;;;;7.43;2.30;;;;;;;11.19;51.21;100173.25;4158155;28;20287;-60
2021/11/26 07:26:34;;;;;;;9.38;2.72;;;;;;;11.15;50.96;100162.03;4157690;28;20065;-58
2021/11/26 07:28:36;;;;;;;7.20;2.58;;;;;;;11.21;51.45;100165.31;4157912;28;20065;-59
2021/11/26 07:30:39;;;;;;;;;;;;;;;11.22;51.00;100165.22;4158547;28;20057;-59
2021/11/26 07:32:42;;;;;;;7.45;2.22;;;;;;;11.21;51.02;100163.50;4157726;28;19961;-60
2021/11/26 07:34:44;;;;;;;7.95;2.53;;;;;;;11.21;51.30;100158.25;4157813;28;20080;-58
2021/11/26 07:36:46;;;;;;;6.22;2.10;;;;;;;11.17;50.98;100154.06;4157736;28;20049;-61
2021/11/26 07:38:48;;;;;;;;;;;;;;;11.23;51.13;100160.81;4158350;28;20074;-60
2021/11/26 07:40:53;;;;;;;9.50;2.55;;;;;;;11.16;51.27;100144.47;4156705;28;19917;-61
2021/11/26 07:42:55;;;;;;;8.38;2.05;;;;;;;11.08;51.18;100131.69;4157666;28;20101;-61
2021/11/26 07:44:57;;;;;;;;;;;;;;;11.21;51.30;100147.72;4158070;28;20061;-60
2021/11/26 07:47:00;;;;;;;9.13;2.60;;;;;;;11.18;51.24;100143.47;4157495;28;19965;-60
2021/11/26 07:49:02;;;;;;;7.78;2.40;;;;;;;11.15;51.12;100138.34;4157643;28;20068;-58
2021/11/26 07:51:04;;;;;;;8.38;2.50;;;;;;;11.21;50.93;100147.72;4157799;28;20112;-60
2021/11/26 07:53:06;;;;;;;7.57;2.78;;;;;;;11.21;50.71;100149.50;4157346;28;20088;-59
2021/11/26 07:55:09;;;;;;;7.20;2.53;;;;;;;11.19;51.09;100150.44;4157786;28;20108;-59
2021/11/26 07:57:16;;;;;;;7.70;2.83;;;;;;;11.22;50.77;100144.16;4157207;28;20247;-58
2021/11/26 07:59:19;;;;;;;8.25;2.63;;;;;;;11.21;50.80;100141.63;4156403;28;20046;-59
2021/11/26 08:01:21;;;;;;;7.80;2.42;;;;;;;11.03;50.90;100115.22;4157394;28;20112;-59
2021/11/26 08:03:23;;;;;;;8.10;2.78;;;;;;;11.19;50.96;100129.38;4157330;28;20058;-61
2021/11/26 08:05:37;;;;;;;7.68;2.40;;;;;;;11.16;51.29;100116.34;4157585;28;20262;-58
2021/11/26 08:07:40;;;;;;;7.25;2.33;;;;;;;11.15;50.83;100108.53;4157066;28;20046;-61
2021/11/26 08:09:42;;;;;;;5.90;2.00;;;;;;;11.18;51.17;100103.16;4157294;28;20392;-60
2021/11/26 08:11:45;;;;;;;7.85;2.33;;;;;;;11.16;50.75;100094.47;4157228;28;20046;-60
2021/11/26 08:13:47;;;;;;;7.32;2.75;;;;;;;11.15;50.73;100093.63;4157031;28;20070;-60
2021/11/26 08:15:49;;;;;;;;;;;;;;;11.20;51.11;100096.00;4157571;28;20109;-58
2021/11/26 08:17:52;;;;;;;8.00;2.20;;;;;;;11.14;50.94;100072.63;4157320;28;19925;-61
2021/11/26 08:19:53;;;;;;;;;;;;;;;11.19;50.72;100084.63;4157451;28;20061;-60
2021/11/26 08:22:17;;;;;;;7.75;2.75;;;;;;;11.17;50.63;100086.47;4157117;28;19924;-58
2021/11/26 08:24:20;;;;;;;13.40;2.20;;;;;;;11.19;50.93;100089.03;4156940;28;20081;-60
2021/11/26 08:26:22;;;;;;;7.80;2.55;;;;;;;11.19;50.89;100089.03;4157225;28;20109;-59
2021/11/26 08:28:24;;;;;;;7.50;2.53;;;;;;;11.21;50.81;100083.72;4156941;28;20157;-58
2021/11/26 08:30:27;;;;;;;7.45;2.47;;;;;;;11.14;50.89;100081.38;4157129;28;20048;-61
2021/11/26 08:32:29;;;;;;;8.43;2.40;;;;;;;11.21;50.96;100086.34;4157107;28;20072;-60
2021/11/26 08:34:31;;;;;;;9.00;2.65;;;;;;;11.20;51.08;100082.84;4156735;28;20054;-58
2021/11/26 08:36:34;;;;;;;7.78;2.53;;;;;;;11.23;51.05;100077.44;4156858;28;20114;-59
2021/11/26 08:38:36;;;;;;;5.90;2.20;;;;;;;11.28;51.12;100078.06;4157008;28;20069;-59
2021/11/26 08:40:38;;;;;;;8.45;2.40;;;;;;;11.32;50.86;100070.88;4156634;28;20061;-60
2021/11/26 08:42:41;;;;;;;;;;;;;;;11.44;50.89;100072.88;4157473;28;20073;-59
2021/11/26 08:44:43;;;;;;;8.57;2.70;;;;;;;11.51;50.41;100071.66;4156462;28;19940;-59
2021/11/26 08:46:45;;;;;;;;;;;;;;;11.56;50.77;100057.44;4157141;28;20049;-58
2021/11/26 08:48:48;;;;;;;9.85;2.50;;;;;;;11.55;50.52;100056.56;4155175;28;19925;-60
2021/11/26 08:50:50;;;;;;;12.80;2.60;;;;;;;11.67;50.05;100066.47;4156541;28;20068;-59
2021/11/26 08:52:52;;;;;;;11.15;2.88;;;;;;;11.73;50.41;100062.69;4169518;28;20269;-57
2021/11/26 08:54:55;;;;;;;9.30;2.20;;;;;;;11.78;50.19;100063.28;4162532;28;20052;-58
2021/11/26 08:56:57;;;;;;;;;;;;;;;11.86;49.97;100062.03;4157187;28;20065;-59
2021/11/26 08:59:01;;;;;;;10.60;2.65;;;;;;;11.92;50.05;100056.44;4155504;28;19941;-58
2021/11/26 09:01:04;;;;;;;6.47;2.15;;;;;;;11.95;49.65;100056.31;4154786;28;20054;-61
2021/11/26 09:03:07;;;;;;;6.78;1.95;;;;;;;11.98;49.56;100059.66;4156034;28;20208;-58
2021/11/26 09:05:10;;;;;;;7.65;2.28;;;;;;;12.01;49.63;100049.91;4155489;28;20046;-58
2021/11/26 09:07:12;;;;;;;;;;;;;;;12.06;49.46;100051.34;4152849;28;20121;-59
2021/11/26 09:09:15;;;;;;;;;;;;;;;12.09;49.71;100047.69;4148577;28;19925;-60
2021/11/26 09:11:17;;;;;;;11.35;2.40;;;;;;;12.06;49.73;100032.06;4151738;28;20159;-60
2021/11/26 09:13:21;;;;;;;12.73;2.53;;;;;;;12.07;49.91;100020.59;4149967;28;20037;-60
2021/11/26 09:15:23;;;;;;;14.45;2.58;;;;;;;12.21;49.74;100027.75;4148484;28;20084;-59
2021/11/26 09:17:25;;;;;;;;;;;;;;;12.24;49.45;100024.97;4151928;28;20367;-59
2021/11/26 09:19:28;;;;;;;10.15;2.63;;;;;;;12.22;49.54;100001.28;4153755;28;20189;-59
2021/11/26 09:21:33;;;;;;;12.52;2.55;;;;;;;12.16;49.28;99980.53;4159517;28;20092;-61
2021/11/26 09:23:41;;;;;;;13.10;3.72;;;;;;;12.35;49.66;100003.28;4150842;28;20126;-59
2021/11/26 09:25:43;;;;;;;12.98;3.83;;;;;;;12.42;49.69;99994.94;4155031;28;20388;-61
2021/11/26 09:27:45;;;;;;;8.80;2.97;;;;;;;12.46;49.61;99988.56;4153556;28;20121;-59
2021/11/26 09:29:48;;;;;;;15.48;3.03;;;;;;;12.41;49.82;99960.75;4157709;28;20167;-61
2021/11/26 09:31:50;;;;;;;;;;;;;;;12.59;49.63;99980.81;4155611;28;20056;-56
2021/11/26 09:33:54;;;;;;;14.40;3.38;;;;;;;12.63;50.09;99971.78;4154717;28;20202;-73
2021/11/26 09:35:57;;;;;;;14.45;3.10;;;;;;;12.70;49.15;99968.84;4154616;28;20042;-61
2021/11/26 09:38:00;;;;;;;8.05;2.83;;;;;;;12.69;49.07;99956.56;4153982;28;20104;-61
2021/11/26 09:40:08;;;;;;;11.27;2.85;;;;;;;12.83;49.50;99951.38;4151432;28;20088;-60
2021/11/26 09:42:13;;;;;;;11.63;2.70;;;;;;;12.88;49.06;99949.31;4144974;28;20089;-58